Time;durP1;ratioP1;P1;durP2;ratioP2;P2;SDS_P1;SDS_P2;PMS_P1;PMS_P2;Temp;Humidity;BMP_temperature;BMP_pressure;BME280_temperature;BME280_humidity;BME280_pressure;Samples;Min_cycle;Max_cycle;Signal;HPM_P1;HPM_P2
2023/05/28 00:00:26;;;;;;;10.23;4.13;;;;;;;;;;5025605;28;20064;-71
2023/05/28 00:02:51;;;;;;;9.15;4.45;;;;;;;;;;5025285;28;20042;-71
2023/05/28 00:05:16;;;;;;;9.88;4.55;;;;;;;;;;5022602;28;20034;-71
2023/05/28 00:07:42;;;;;;;7.90;3.53;;;;;;;;;;5025027;28;20033;-71
2023/05/28 00:10:07;;;;;;;11.15;4.20;;;;;;;;;;5022300;28;20124;-71
2023/05/28 00:12:32;;;;;;;7.63;3.90;;;;;;;;;;5024913;28;20109;-71
2023/05/28 00:14:59;;;;;;;9.25;4.15;;;;;;;;;;5017909;28;20030;-71
2023/05/28 00:17:24;;;;;;;9.68;4.20;;;;;;;;;;5025596;28;20036;-71
2023/05/28 00:19:49;;;;;;;6.70;3.55;;;;;;;;;;5024236;28;20029;-71
2023/05/28 00:22:15;;;;;;;7.22;3.88;;;;;;;;;;5026236;28;20040;-71
2023/05/28 00:24:40;;;;;;;7.93;3.95;;;;;;;;;;5024194;28;20032;-71
2023/05/28 00:27:08;;;;;;;11.57;4.75;;;;;;;;;;5026042;28;20037;-71
2023/05/28 00:29:33;;;;;;;7.43;3.85;;;;;;;;;;5026733;28;20480;-71
2023/05/28 00:31:59;;;;;;;9.98;3.70;;;;;;;;;;5022214;28;20040;-71
2023/05/28 00:34:24;;;;;;;9.23;4.30;;;;;;;;;;5023004;28;20042;-71
2023/05/28 00:36:50;;;;;;;8.48;4.43;;;;;;;;;;5025130;28;20041;-71
2023/05/28 00:39:15;;;;;;;11.65;4.50;;;;;;;;;;5022930;28;20037;-71
2023/05/28 00:41:41;;;;;;;8.65;4.15;;;;;;;;;;5024987;28;20041;-71
2023/05/28 00:44:08;;;;;;;9.02;4.78;;;;;;;;;;5020174;28;20022;-71
2023/05/28 00:46:34;;;;;;;10.45;4.38;;;;;;;;;;5023798;28;20480;-71
2023/05/28 00:49:00;;;;;;;11.73;4.40;;;;;;;;;;5020710;28;20033;-71
2023/05/28 00:51:25;;;;;;;8.30;4.18;;;;;;;;;;5023743;28;20029;-71
2023/05/28 00:53:51;;;;;;;8.10;4.30;;;;;;;;;;5023527;28;20037;-71
2023/05/28 00:56:16;;;;;;;11.13;5.30;;;;;;;;;;5021942;28;20052;-71
2023/05/28 00:58:43;;;;;;;13.18;4.65;;;;;;;;;;5024617;28;20448;-71
2023/05/28 01:01:09;;;;;;;9.50;4.35;;;;;;;;;;5024594;28;20034;-71
2023/05/28 01:03:38;;;;;;;10.02;4.50;;;;;;;;;;5020951;28;20025;-71
2023/05/28 01:06:07;;;;;;;8.63;3.88;;;;;;;;;;5020708;28;20038;-71
2023/05/28 01:08:32;;;;;;;9.45;4.45;;;;;;;;;;5023968;28;20064;-71
2023/05/28 01:10:58;;;;;;;10.10;4.30;;;;;;;;;;5021154;28;20065;-71
2023/05/28 01:13:23;;;;;;;6.55;3.80;;;;;;;;;;5026569;28;20033;-71
2023/05/28 01:15:48;;;;;;;11.90;4.20;;;;;;;;;;5021443;28;20037;-71
2023/05/28 01:18:14;;;;;;;10.82;4.32;;;;;;;;;;5021458;28;20033;-71
2023/05/28 01:20:39;;;;;;;9.43;4.28;;;;;;;;;;5024995;28;20040;-71
2023/05/28 01:23:11;;;;;;;10.40;4.13;;;;;;;;;;5021568;28;20029;-71
2023/05/28 01:25:38;;;;;;;8.27;4.25;;;;;;;;;;5020957;28;20121;-72
2023/05/28 01:28:12;;;;;;;8.93;4.63;;;;;;;;;;5023504;28;20120;-71
2023/05/28 01:30:38;;;;;;;7.93;3.88;;;;;;;;;;5018981;28;20503;-71
2023/05/28 01:33:03;;;;;;;10.23;4.47;;;;;;;;;;5023766;28;20037;-71
2023/05/28 01:35:29;;;;;;;10.35;4.47;;;;;;;;;;5022600;28;20040;-71
2023/05/28 01:37:58;;;;;;;10.05;4.57;;;;;;;;;;5026652;28;20017;-71
2023/05/28 01:40:24;;;;;;;11.55;4.43;;;;;;;;;;5019251;28;20113;-71
2023/05/28 01:42:50;;;;;;;9.48;4.40;;;;;;;;;;5021964;28;20124;-71
2023/05/28 01:45:17;;;;;;;9.60;4.60;;;;;;;;;;5020161;28;20470;-71
2023/05/28 01:47:44;;;;;;;8.02;3.70;;;;;;;;;;5021119;28;20047;-71
2023/05/28 01:50:11;;;;;;;11.20;4.35;;;;;;;;;;5020201;28;20044;-71
2023/05/28 01:52:36;;;;;;;10.93;4.32;;;;;;;;;;5022011;28;20033;-71
2023/05/28 01:55:02;;;;;;;9.07;4.10;;;;;;;;;;5020525;28;20050;-71
2023/05/28 01:57:27;;;;;;;10.93;4.70;;;;;;;;;;5022348;28;20050;-71
2023/05/28 01:59:52;;;;;;;9.18;4.82;;;;;;;;;;5020202;28;20029;-71
2023/05/28 02:02:19;;;;;;;9.15;4.82;;;;;;;;;;5020388;28;20036;-71
2023/05/28 02:04:45;;;;;;;10.55;4.70;;;;;;;;;;5019934;28;20116;-71
2023/05/28 02:07:10;;;;;;;10.77;5.53;;;;;;;;;;5022092;28;20072;-71
2023/05/28 02:09:36;;;;;;;17.05;5.38;;;;;;;;;;5019446;28;20028;-71
2023/05/28 02:12:02;;;;;;;11.80;5.72;;;;;;;;;;5021071;28;20040;-71
2023/05/28 02:14:28;;;;;;;11.95;5.05;;;;;;;;;;5020268;28;20075;-71
2023/05/28 02:16:53;;;;;;;8.13;4.30;;;;;;;;;;5024076;28;20108;-71
2023/05/28 02:19:19;;;;;;;6.15;3.67;;;;;;;;;;5028728;28;20138;-71
2023/05/28 02:21:44;;;;;;;9.10;4.55;;;;;;;;;;5018982;28;20036;-71
2023/05/28 02:24:10;;;;;;;11.95;4.40;;;;;;;;;;5021372;28;20474;-71
2023/05/28 02:26:35;;;;;;;8.77;4.40;;;;;;;;;;5019277;28;20476;-71
2023/05/28 02:29:00;;;;;;;13.75;5.20;;;;;;;;;;5023109;28;20029;-71
2023/05/28 02:31:26;;;;;;;10.13;4.75;;;;;;;;;;5019846;28;20030;-71
2023/05/28 02:33:51;;;;;;;13.20;4.57;;;;;;;;;;5021817;28;20052;-71
2023/05/28 02:36:16;;;;;;;8.25;4.28;;;;;;;;;;5022945;28;20033;-71
2023/05/28 02:38:42;;;;;;;10.77;5.57;;;;;;;;;;5024848;28;20037;-71
2023/05/28 02:41:08;;;;;;;12.88;4.72;;;;;;;;;;5028187;28;20026;-71
2023/05/28 02:43:35;;;;;;;14.25;5.25;;;;;;;;;;5028569;28;20117;-70
2023/05/28 02:46:02;;;;;;;10.70;4.50;;;;;;;;;;5026910;28;20025;-71
2023/05/28 02:48:27;;;;;;;9.40;4.97;;;;;;;;;;5027932;28;20029;-71
2023/05/28 02:50:52;;;;;;;10.38;4.85;;;;;;;;;;5026008;28;20763;-71
2023/05/28 02:53:34;;;;;;;8.90;4.60;;;;;;;;;;5025631;28;20022;-71
2023/05/28 02:56:00;;;;;;;9.88;4.60;;;;;;;;;;5027458;28;20033;-71
2023/05/28 02:58:25;;;;;;;9.02;4.28;;;;;;;;;;5028692;28;20560;-71
2023/05/28 03:00:51;;;;;;;10.68;4.60;;;;;;;;;;5025823;28;20065;-71
2023/05/28 03:03:16;;;;;;;8.98;5.03;;;;;;;;;;5036055;28;20032;-71
2023/05/28 03:05:41;;;;;;;10.70;4.38;;;;;;;;;;5025003;28;20487;-71
2023/05/28 03:08:07;;;;;;;10.40;4.95;;;;;;;;;;5027712;28;20029;-71
2023/05/28 03:10:32;;;;;;;10.27;4.65;;;;;;;;;;5024601;28;20037;-71
2023/05/28 03:12:57;;;;;;;8.82;4.43;;;;;;;;;;5031254;28;20484;-70
2023/05/28 03:15:26;;;;;;;12.52;5.55;;;;;;;;;;5028923;28;20459;-71
2023/05/28 03:17:52;;;;;;;11.38;4.68;;;;;;;;;;5024330;28;20037;-71
2023/05/28 03:20:18;;;;;;;9.15;4.70;;;;;;;;;;5027569;28;20021;-71
2023/05/28 03:22:43;;;;;;;10.68;4.50;;;;;;;;;;5033242;28;20021;-71
2023/05/28 03:25:09;;;;;;;11.25;4.53;;;;;;;;;;5028137;28;20021;-71
2023/05/28 03:27:34;;;;;;;7.43;3.78;;;;;;;;;;5026778;28;20025;-71
2023/05/28 03:30:00;;;;;;;9.70;4.72;;;;;;;;;;5027128;28;20079;-71
2023/05/28 03:32:42;;;;;;;12.25;4.30;;;;;;;;;;5027136;28;20025;-71
2023/05/28 03:35:07;;;;;;;8.20;3.97;;;;;;;;;;5024947;28;20030;-71
2023/05/28 03:37:33;;;;;;;12.65;4.75;;;;;;;;;;5027299;28;20108;-71
2023/05/28 03:39:59;;;;;;;7.35;4.05;;;;;;;;;;5025873;28;20101;-71
2023/05/28 03:42:24;;;;;;;12.63;5.05;;;;;;;;;;5027453;28;20030;-71
2023/05/28 03:44:50;;;;;;;8.32;4.30;;;;;;;;;;5021051;28;20022;-71
2023/05/28 03:47:16;;;;;;;7.70;4.25;;;;;;;;;;5028843;28;20057;-71
2023/05/28 03:49:41;;;;;;;10.63;4.57;;;;;;;;;;5025639;28;20112;-71
2023/05/28 03:52:07;;;;;;;9.70;4.60;;;;;;;;;;5020830;28;20040;-71
2023/05/28 03:54:43;;;;;;;9.20;4.38;;;;;;;;;;5028182;28;20026;-71
2023/05/28 03:57:08;;;;;;;8.40;4.32;;;;;;;;;;5025909;28;20032;-71
2023/05/28 03:59:34;;;;;;;8.77;4.93;;;;;;;;;;5020307;28;20029;-71
2023/05/28 04:02:01;;;;;;;8.55;4.65;;;;;;;;;;5023423;28;20068;-71
2023/05/28 04:04:27;;;;;;;8.13;4.43;;;;;;;;;;5023833;28;20042;-71
2023/05/28 04:06:52;;;;;;;8.10;4.10;;;;;;;;;;5026296;28;20026;-71
2023/05/28 04:09:17;;;;;;;11.60;5.15;;;;;;;;;;5022184;28;20041;-71
2023/05/28 04:11:43;;;;;;;9.27;4.32;;;;;;;;;;5031457;28;20068;-71
2023/05/28 04:14:12;;;;;;;11.32;4.30;;;;;;;;;;5024380;28;20064;-71
2023/05/28 04:16:37;;;;;;;11.02;4.72;;;;;;;;;;5024453;28;20038;-71
2023/05/28 04:19:02;;;;;;;9.73;4.22;;;;;;;;;;5023538;28;20034;-71
2023/05/28 04:21:28;;;;;;;9.75;4.20;;;;;;;;;;5027073;28;20033;-71
2023/05/28 04:23:54;;;;;;;9.48;4.38;;;;;;;;;;5022198;28;20056;-71
2023/05/28 04:26:20;;;;;;;8.88;4.35;;;;;;;;;;5023596;28;20094;-71
2023/05/28 04:28:46;;;;;;;9.98;4.82;;;;;;;;;;5024498;28;20127;-71
2023/05/28 04:31:11;;;;;;;9.73;4.60;;;;;;;;;;5023654;28;20136;-71
2023/05/28 04:33:38;;;;;;;10.50;4.25;;;;;;;;;;5033406;23;20054;-75
2023/05/28 04:36:04;;;;;;;10.32;5.05;;;;;;;;;;4991878;28;20022;-74
2023/05/28 04:38:33;;;;;;;8.70;4.50;;;;;;;;;;5039920;28;20376;-75
2023/05/28 04:40:59;;;;;;;12.02;4.85;;;;;;;;;;5021605;28;20053;-75
2023/05/28 04:43:25;;;;;;;12.02;5.10;;;;;;;;;;5025822;28;20033;-75
2023/05/28 04:45:53;;;;;;;9.07;4.82;;;;;;;;;;5004076;28;20113;-75
2023/05/28 04:48:19;;;;;;;8.52;4.53;;;;;;;;;;5004864;28;20026;-75
2023/05/28 04:50:45;;;;;;;9.55;5.63;;;;;;;;;;5006977;28;20435;-75
2023/05/28 04:53:10;;;;;;;7.93;4.72;;;;;;;;;;5005342;28;20029;-75
2023/05/28 04:55:36;;;;;;;7.82;4.47;;;;;;;;;;5007074;28;20041;-75
2023/05/28 04:58:01;;;;;;;8.55;4.53;;;;;;;;;;5007101;28;20062;-75
2023/05/28 05:00:27;;;;;;;9.80;4.47;;;;;;;;;;5004262;28;20028;-75
2023/05/28 05:02:54;;;;;;;11.88;4.93;;;;;;;;;;5005378;28;20128;-75
2023/05/28 05:05:20;;;;;;;11.43;4.78;;;;;;;;;;5014005;28;20033;-75
2023/05/28 05:07:45;;;;;;;9.73;4.97;;;;;;;;;;5005625;28;20021;-76
2023/05/28 05:10:13;;;;;;;12.10;4.75;;;;;;;;;;5009694;28;20025;-75
2023/05/28 05:12:39;;;;;;;12.48;4.80;;;;;;;;;;5011368;28;20397;-75
2023/05/28 05:15:08;;;;;;;11.45;4.70;;;;;;;;;;5009287;28;20032;-75
2023/05/28 05:17:33;;;;;;;9.68;4.40;;;;;;;;;;5009865;28;20133;-75
2023/05/28 05:20:01;;;;;;;9.40;5.22;;;;;;;;;;5004537;28;20544;-75
2023/05/28 05:22:26;;;;;;;10.57;4.43;;;;;;;;;;5007636;28;20040;-76
2023/05/28 05:24:52;;;;;;;9.90;4.93;;;;;;;;;;5006093;28;20402;-75
2023/05/28 05:27:18;;;;;;;9.38;4.80;;;;;;;;;;5006707;28;20071;-75
2023/05/28 05:29:44;;;;;;;11.77;4.90;;;;;;;;;;5026022;28;20092;-75
2023/05/28 05:32:09;;;;;;;11.52;4.63;;;;;;;;;;5003374;28;20060;-75
2023/05/28 05:34:35;;;;;;;11.57;5.10;;;;;;;;;;5005376;28;20040;-76
2023/05/28 05:37:18;;;;;;;9.88;5.28;;;;;;;;;;5023905;28;20053;-75
2023/05/28 05:40:05;;;;;;;12.73;4.68;;;;;;;;;;5023164;28;20043;-75
2023/05/28 05:42:50;;;;;;;11.77;4.20;;;;;;;;;;5003497;28;20396;-75
2023/05/28 05:45:15;;;;;;;10.50;4.72;;;;;;;;;;5007714;28;20088;-74
2023/05/28 05:47:40;;;;;;;7.55;4.32;;;;;;;;;;5012563;28;20037;-76
2023/05/28 05:50:06;;;;;;;7.35;4.13;;;;;;;;;;5003392;28;20034;-75
2023/05/28 05:52:31;;;;;;;10.57;4.25;;;;;;;;;;5007826;28;20036;-75
2023/05/28 05:54:57;;;;;;;8.13;3.80;;;;;;;;;;4987696;28;20409;-75
2023/05/28 05:57:23;;;;;;;9.57;4.45;;;;;;;;;;5005245;28;20055;-76
2023/05/28 05:59:51;;;;;;;8.93;4.25;;;;;;;;;;5003962;28;20026;-75
2023/05/28 06:02:17;;;;;;;8.63;4.07;;;;;;;;;;5005809;28;20026;-76
2023/05/28 06:04:42;;;;;;;10.05;4.40;;;;;;;;;;5003342;28;20029;-76
2023/05/28 06:07:40;;;;;;;10.45;4.43;;;;;;;;;;4989876;28;20042;-75
2023/05/28 06:10:17;;;;;;;9.98;3.88;;;;;;;;;;4987622;28;20160;-76
2023/05/28 06:12:42;;;;;;;8.60;4.32;;;;;;;;;;5022140;28;20072;-75
2023/05/28 06:15:08;;;;;;;9.40;4.40;;;;;;;;;;5019576;28;20057;-75
2023/05/28 06:17:33;;;;;;;7.80;3.60;;;;;;;;;;4988557;28;20029;-76
2023/05/28 06:20:00;;;;;;;7.78;4.18;;;;;;;;;;5002659;28;20026;-76
2023/05/28 06:22:28;;;;;;;9.77;4.43;;;;;;;;;;5004069;28;20034;-75
2023/05/28 06:24:55;;;;;;;6.63;3.60;;;;;;;;;;5023993;28;20020;-76
2023/05/28 06:27:20;;;;;;;8.95;4.03;;;;;;;;;;5023124;28;20076;-76
2023/05/28 06:29:46;;;;;;;7.22;4.00;;;;;;;;;;5003535;28;20563;-75
2023/05/28 06:32:13;;;;;;;8.95;4.00;;;;;;;;;;5003420;28;20039;-74
2023/05/28 06:34:38;;;;;;;7.57;3.60;;;;;;;;;;5007771;28;20385;-75
2023/05/28 06:37:04;;;;;;;7.85;3.60;;;;;;;;;;5006278;28;20034;-76
2023/05/28 06:39:30;;;;;;;7.60;3.85;;;;;;;;;;5004097;28;20079;-75
2023/05/28 06:41:56;;;;;;;7.70;3.20;;;;;;;;;;5013229;28;20021;-75
2023/05/28 06:44:35;;;;;;;7.45;3.88;;;;;;;;;;5004273;28;20032;-76
2023/05/28 06:47:07;;;;;;;9.38;4.38;;;;;;;;;;5007145;28;20022;-75
2023/05/28 06:49:33;;;;;;;7.80;4.07;;;;;;;;;;5003197;28;20029;-75
2023/05/28 06:51:58;;;;;;;6.70;3.70;;;;;;;;;;5003471;28;20116;-76
2023/05/28 06:54:23;;;;;;;9.27;4.20;;;;;;;;;;5003200;28;20033;-75
2023/05/28 06:56:49;;;;;;;7.82;3.90;;;;;;;;;;5007306;28;20109;-75
2023/05/28 06:59:40;;;;;;;9.03;4.00;;;;;;;;;;5004498;28;20546;-76
2023/05/28 07:02:20;;;;;;;6.55;3.33;;;;;;;;;;5023136;28;20348;-76
2023/05/28 07:05:12;;;;;;;7.63;3.10;;;;;;;;;;5005615;28;20029;-76
2023/05/28 07:07:38;;;;;;;6.18;3.53;;;;;;;;;;5004047;28;20646;-76
2023/05/28 07:10:03;;;;;;;7.20;3.65;;;;;;;;;;5001807;28;20029;-76
2023/05/28 07:12:31;;;;;;;5.93;3.05;;;;;;;;;;5020979;28;20026;-75
2023/05/28 07:14:57;;;;;;;9.30;4.07;;;;;;;;;;5004599;28;20404;-75
2023/05/28 07:17:23;;;;;;;6.63;3.20;;;;;;;;;;4988374;28;20039;-76
2023/05/28 07:19:50;;;;;;;7.97;3.20;;;;;;;;;;5021736;28;20034;-76
2023/05/28 07:22:21;;;;;;;7.00;3.10;;;;;;;;;;5003297;28;20029;-76
2023/05/28 07:24:47;;;;;;;8.73;3.55;;;;;;;;;;5005890;28;20044;-76
2023/05/28 07:27:12;;;;;;;6.40;3.17;;;;;;;;;;5008793;28;20053;-76
2023/05/28 07:29:37;;;;;;;5.47;2.80;;;;;;;;;;5009469;28;20030;-75
2023/05/28 07:32:03;;;;;;;7.78;3.08;;;;;;;;;;5006928;28;20029;-76
2023/05/28 07:34:33;;;;;;;5.57;2.65;;;;;;;;;;5005898;28;20129;-76
2023/05/28 07:36:58;;;;;;;7.35;3.25;;;;;;;;;;5007578;28;20603;-76
2023/05/28 07:39:24;;;;;;;8.23;2.95;;;;;;;;;;5005387;28;20033;-76
2023/05/28 07:41:52;;;;;;;8.27;3.22;;;;;;;;;;5029289;28;20040;-76
2023/05/28 07:44:25;;;;;;;6.75;2.35;;;;;;;;;;5007092;28;20021;-76
2023/05/28 07:46:51;;;;;;;5.43;2.20;;;;;;;;;;5007713;28;20022;-76
2023/05/28 07:49:35;;;;;;;6.28;2.20;;;;;;;;;;5010385;28;20084;-76
2023/05/28 07:52:01;;;;;;;7.78;2.10;;;;;;;;;;5022665;28;20484;-76
2023/05/28 07:54:29;;;;;;;6.00;2.35;;;;;;;;;;5007056;28;20029;-76
2023/05/28 07:56:56;;;;;;;4.68;2.00;;;;;;;;;;5009672;28;20212;-75
2023/05/28 07:59:27;;;;;;;6.90;2.35;;;;;;;;;;5007028;28;20069;-76
2023/05/28 08:01:54;;;;;;;5.65;2.30;;;;;;;;;;5005546;28;20120;-75
2023/05/28 08:04:19;;;;;;;7.88;2.03;;;;;;;;;;5010042;28;20068;-76
2023/05/28 08:06:45;;;;;;;4.80;1.90;;;;;;;;;;5005648;28;20026;-76
2023/05/28 08:09:15;;;;;;;6.40;2.00;;;;;;;;;;5005935;28;20041;-76
2023/05/28 08:11:40;;;;;;;4.93;2.10;;;;;;;;;;5006393;28;20512;-75
2023/05/28 08:14:06;;;;;;;4.75;2.22;;;;;;;;;;5007230;28;20032;-76
2023/05/28 08:16:31;;;;;;;5.18;1.90;;;;;;;;;;5006744;28;20033;-76
2023/05/28 08:19:15;;;;;;;4.45;2.00;;;;;;;;;;5011230;28;20021;-76
2023/05/28 08:21:43;;;;;;;4.93;2.15;;;;;;;;;;5007120;28;20503;-76
2023/05/28 08:24:10;;;;;;;5.43;1.70;;;;;;;;;;5005984;28;20032;-76
2023/05/28 08:26:36;;;;;;;4.97;1.98;;;;;;;;;;5009411;28;20025;-76
2023/05/28 08:29:02;;;;;;;4.85;1.80;;;;;;;;;;5014014;28;20121;-76
2023/05/28 08:31:31;;;;;;;7.95;2.25;;;;;;;;;;5004985;28;20136;-75
2023/05/28 08:34:09;;;;;;;6.13;1.90;;;;;;;;;;5004039;28;20523;-76
2023/05/28 08:36:35;;;;;;;6.10;2.03;;;;;;;;;;5009864;28;20025;-76
2023/05/28 08:39:02;;;;;;;4.75;1.80;;;;;;;;;;5008037;28;20555;-76
2023/05/28 08:41:29;;;;;;;5.22;2.42;;;;;;;;;;4990078;28;20037;-75
2023/05/28 08:43:54;;;;;;;4.45;1.60;;;;;;;;;;5004534;28;20080;-76
2023/05/28 08:46:19;;;;;;;4.35;2.10;;;;;;;;;;5004889;28;20053;-76
2023/05/28 08:49:20;;;;;;;6.20;1.95;;;;;;;;;;5006999;28;20060;-76
2023/05/28 08:51:48;;;;;;;4.63;1.88;;;;;;;;;;5005941;28;20124;-76
2023/05/28 08:54:14;;;;;;;4.50;2.13;;;;;;;;;;5003969;28;20513;-76
2023/05/28 08:56:40;;;;;;;4.13;1.95;;;;;;;;;;5007978;28;20030;-76
2023/05/28 08:59:06;;;;;;;4.95;1.73;;;;;;;;;;5014480;28;20033;-75
2023/05/28 09:01:33;;;;;;;4.53;1.88;;;;;;;;;;5003510;28;20138;-76
2023/05/28 09:04:05;;;;;;;4.85;1.95;;;;;;;;;;5003839;28;20113;-76
2023/05/28 09:06:37;;;;;;;5.05;2.00;;;;;;;;;;5005611;28;20030;-76
2023/05/28 09:09:03;;;;;;;4.00;1.80;;;;;;;;;;5004460;28;20053;-76
2023/05/28 09:11:49;;;;;;;4.60;1.80;;;;;;;;;;5006793;28;20056;-77
2023/05/28 09:14:17;;;;;;;7.38;2.17;;;;;;;;;;5012384;28;20451;-76
2023/05/28 09:16:44;;;;;;;4.03;1.67;;;;;;;;;;5005628;28;20120;-76
2023/05/28 09:19:15;;;;;;;3.63;1.48;;;;;;;;;;5004855;28;20041;-76
2023/05/28 09:22:02;;;;;;;4.13;1.67;;;;;;;;;;5004254;28;20034;-76
2023/05/28 09:24:38;;;;;;;4.50;1.92;;;;;;;;;;5012694;28;20029;-76
2023/05/28 09:27:30;;;;;;;4.43;1.85;;;;;;;;;;5021021;28;20169;-76
2023/05/28 09:29:55;;;;;;;5.93;2.10;;;;;;;;;;5022705;28;20033;-76
2023/05/28 09:32:20;;;;;;;5.35;2.20;;;;;;;;;;5024141;28;20317;-75
2023/05/28 09:34:46;;;;;;;4.80;1.80;;;;;;;;;;5003531;28;20116;-76
2023/05/28 09:37:11;;;;;;;5.55;1.77;;;;;;;;;;5023002;28;20126;-76
2023/05/28 09:39:36;;;;;;;7.10;1.90;;;;;;;;;;5020878;28;20076;-75
2023/05/28 09:42:03;;;;;;;5.13;1.98;;;;;;;;;;5022925;28;20037;-76
2023/05/28 09:44:32;;;;;;;5.85;1.75;;;;;;;;;;5022261;28;20036;-75
2023/05/28 09:46:57;;;;;;;4.35;1.60;;;;;;;;;;5023023;28;20061;-76
2023/05/28 09:49:22;;;;;;;6.82;1.83;;;;;;;;;;5022622;28;20143;-75
2023/05/28 09:51:51;;;;;;;5.30;1.88;;;;;;;;;;5006147;28;20040;-76
2023/05/28 09:54:18;;;;;;;3.55;1.60;;;;;;;;;;4993821;28;20041;-75
2023/05/28 09:56:45;;;;;;;4.80;1.70;;;;;;;;;;5026055;28;20038;-76
2023/05/28 09:59:12;;;;;;;5.63;1.73;;;;;;;;;;5022344;28;20042;-76
2023/05/28 10:01:40;;;;;;;3.83;1.58;;;;;;;;;;5023557;28;20116;-76
2023/05/28 10:04:08;;;;;;;5.22;1.70;;;;;;;;;;5021366;28;20037;-76
2023/05/28 10:06:35;;;;;;;5.05;1.85;;;;;;;;;;5021776;28;20025;-76
2023/05/28 10:09:00;;;;;;;6.38;2.10;;;;;;;;;;5023294;28;20037;-76
2023/05/28 10:11:27;;;;;;;8.32;1.80;;;;;;;;;;5021053;28;20040;-76
2023/05/28 10:13:53;;;;;;;6.70;1.90;;;;;;;;;;5004553;28;20046;-76
2023/05/28 10:16:19;;;;;;;4.28;1.70;;;;;;;;;;5022471;28;20083;-75
2023/05/28 10:18:45;;;;;;;4.82;1.75;;;;;;;;;;5023699;28;20034;-76
2023/05/28 10:21:11;;;;;;;5.22;1.77;;;;;;;;;;5022523;28;20144;-76
2023/05/28 10:23:36;;;;;;;4.82;1.67;;;;;;;;;;5019982;28;20096;-76
2023/05/28 10:26:02;;;;;;;4.10;1.88;;;;;;;;;;5022940;28;20037;-76
2023/05/28 10:28:29;;;;;;;5.43;1.90;;;;;;;;;;5019763;28;20030;-76
2023/05/28 10:31:04;;;;;;;3.83;1.65;;;;;;;;;;5022838;28;20030;-76
2023/05/28 10:33:30;;;;;;;4.05;1.48;;;;;;;;;;5023688;28;20088;-76
2023/05/28 10:35:56;;;;;;;5.13;1.67;;;;;;;;;;5022261;28;20480;-76
2023/05/28 10:38:22;;;;;;;5.07;1.73;;;;;;;;;;5023277;28;20034;-76
2023/05/28 10:40:48;;;;;;;3.42;1.60;;;;;;;;;;5007811;28;20033;-76
2023/05/28 10:43:32;;;;;;;4.55;1.75;;;;;;;;;;5023157;28;20030;-76
2023/05/28 10:45:58;;;;;;;5.18;1.70;;;;;;;;;;5016479;28;20033;-75
2023/05/28 10:48:23;;;;;;;4.47;1.77;;;;;;;;;;5022417;28;20026;-76
2023/05/28 10:51:00;;;;;;;7.17;2.30;;;;;;;;;;5019721;28;20280;-75
2023/05/28 10:53:28;;;;;;;4.68;1.80;;;;;;;;;;5022943;28;20277;-75
2023/05/28 10:55:54;;;;;;;4.95;2.20;;;;;;;;;;5005045;28;20060;-75
2023/05/28 10:58:26;;;;;;;4.22;2.00;;;;;;;;;;5027395;28;20072;-75
2023/05/28 11:00:51;;;;;;;3.97;1.75;;;;;;;;;;5023004;28;20030;-76
2023/05/28 11:03:17;;;;;;;6.70;2.08;;;;;;;;;;5026930;28;20030;-76
2023/05/28 11:05:43;;;;;;;5.82;2.10;;;;;;;;;;5026768;28;20059;-77
2023/05/28 11:08:08;;;;;;;4.55;1.70;;;;;;;;;;5023456;28;20029;-76
2023/05/28 11:10:34;;;;;;;6.15;2.30;;;;;;;;;;5026543;28;20036;-76
2023/05/28 11:12:59;;;;;;;4.93;1.88;;;;;;;;;;5026797;28;20040;-76
2023/05/28 11:15:25;;;;;;;5.15;2.00;;;;;;;;;;5023013;28;20034;-76
2023/05/28 11:17:50;;;;;;;5.13;1.60;;;;;;;;;;5026069;28;20037;-76
2023/05/28 11:20:17;;;;;;;3.85;1.80;;;;;;;;;;5005987;28;20038;-76
2023/05/28 11:22:42;;;;;;;4.22;1.85;;;;;;;;;;5025599;28;20231;-76
2023/05/28 11:25:09;;;;;;;4.88;1.73;;;;;;;;;;5023889;28;20030;-77
2023/05/28 11:27:36;;;;;;;4.78;1.95;;;;;;;;;;5028143;28;20037;-77
2023/05/28 11:30:15;;;;;;;5.15;1.70;;;;;;;;;;5024254;28;20026;-76
2023/05/28 11:32:41;;;;;;;4.90;1.95;;;;;;;;;;5026521;28;20458;-76
2023/05/28 11:35:09;;;;;;;4.40;1.65;;;;;;;;;;5004844;28;20037;-75
2023/05/28 11:37:34;;;;;;;5.88;2.00;;;;;;;;;;5012448;28;20048;-76
2023/05/28 11:40:00;;;;;;;6.20;1.77;;;;;;;;;;5015934;28;20033;-76
2023/05/28 11:42:26;;;;;;;3.53;1.88;;;;;;;;;;5022906;28;20468;-76
2023/05/28 11:44:52;;;;;;;4.13;2.30;;;;;;;;;;5025585;28;20077;-76
2023/05/28 11:47:18;;;;;;;6.22;1.88;;;;;;;;;;5029339;28;20033;-76
2023/05/28 11:49:43;;;;;;;7.28;2.38;;;;;;;;;;5023016;28;20034;-76
2023/05/28 11:52:19;;;;;;;4.97;1.98;;;;;;;;;;5008715;28;20022;-76
2023/05/28 11:54:45;;;;;;;4.53;1.70;;;;;;;;;;5023870;28;20491;-77
2023/05/28 11:57:10;;;;;;;5.18;2.00;;;;;;;;;;5027222;28;20037;-76
2023/05/28 11:59:36;;;;;;;4.45;1.85;;;;;;;;;;5024261;28;20049;-77
2023/05/28 12:02:14;;;;;;;4.65;1.90;;;;;;;;;;5026169;28;20030;-76
2023/05/28 12:04:39;;;;;;;3.80;1.70;;;;;;;;;;5022659;28;20034;-76
2023/05/28 12:07:04;;;;;;;3.88;2.00;;;;;;;;;;5025153;28;20033;-76
2023/05/28 12:09:30;;;;;;;4.10;2.00;;;;;;;;;;5025149;28;20033;-77
2023/05/28 12:12:02;;;;;;;3.80;1.90;;;;;;;;;;5026415;28;20319;-76
2023/05/28 12:14:29;;;;;;;4.80;2.05;;;;;;;;;;5024607;28;20029;-76
2023/05/28 12:16:54;;;;;;;3.95;1.88;;;;;;;;;;5021776;28;20025;-77
2023/05/28 12:19:20;;;;;;;3.93;1.60;;;;;;;;;;5027271;28;20499;-76
2023/05/28 12:21:45;;;;;;;8.95;3.17;;;;;;;;;;5023584;28;20768;-76
2023/05/28 12:24:14;;;;;;;5.10;1.90;;;;;;;;;;5024140;28;20029;-77
2023/05/28 12:26:40;;;;;;;4.25;1.90;;;;;;;;;;5023756;28;20030;-77
2023/05/28 12:29:06;;;;;;;3.85;2.00;;;;;;;;;;5025234;28;20395;-76
2023/05/28 12:31:31;;;;;;;3.20;1.70;;;;;;;;;;5025565;28;20026;-77
2023/05/28 12:33:56;;;;;;;3.72;2.00;;;;;;;;;;5022171;28;20053;-77
2023/05/28 12:36:21;;;;;;;6.43;1.80;;;;;;;;;;5025396;28;20501;-76
2023/05/28 12:38:47;;;;;;;3.67;1.90;;;;;;;;;;5025159;28;20026;-77
2023/05/28 12:41:12;;;;;;;6.80;2.30;;;;;;;;;;5025822;28;20775;-77
2023/05/28 12:43:37;;;;;;;5.30;2.10;;;;;;;;;;5025400;28;20116;-77
2023/05/28 12:46:02;;;;;;;5.10;2.27;;;;;;;;;;5020298;28;20042;-77
2023/05/28 12:48:27;;;;;;;4.35;2.15;;;;;;;;;;5007319;28;20047;-75
2023/05/28 12:50:53;;;;;;;5.13;2.10;;;;;;;;;;5021662;28;20056;-77
2023/05/28 12:53:18;;;;;;;3.63;1.83;;;;;;;;;;5025110;28;20280;-77
2023/05/28 12:55:43;;;;;;;3.90;1.83;;;;;;;;;;5025834;28;20060;-77
2023/05/28 12:58:08;;;;;;;6.20;1.90;;;;;;;;;;5027469;28;20045;-77
2023/05/28 13:00:35;;;;;;;3.13;1.90;;;;;;;;;;5021817;28;20272;-77
2023/05/28 13:03:02;;;;;;;3.10;1.88;;;;;;;;;;5004387;28;20339;-76
2023/05/28 13:05:27;;;;;;;4.88;2.17;;;;;;;;;;5028158;28;20047;-77
2023/05/28 13:07:53;;;;;;;4.22;2.05;;;;;;;;;;5022003;28;20536;-76
2023/05/28 13:10:18;;;;;;;5.90;2.20;;;;;;;;;;5027499;28;20033;-75
2023/05/28 13:12:43;;;;;;;4.70;2.60;;;;;;;;;;5021188;28;20292;-75
2023/05/28 13:15:08;;;;;;;3.87;2.30;;;;;;;;;;5020423;28;20048;-75
2023/05/28 13:17:34;;;;;;;5.97;1.90;;;;;;;;;;5026373;28;20290;-76
2023/05/28 13:20:00;;;;;;;3.73;2.00;;;;;;;;;;5021014;28;20029;-75
2023/05/28 13:22:25;;;;;;;5.18;2.20;;;;;;;;;;5023284;28;20326;-75
2023/05/28 13:24:50;;;;;;;4.67;2.00;;;;;;;;;;5021334;28;20040;-75
2023/05/28 13:27:15;;;;;;;4.77;2.20;;;;;;;;;;5007408;28;20038;-75
2023/05/28 13:29:40;;;;;;;5.43;1.90;;;;;;;;;;5022970;28;20119;-75
2023/05/28 13:32:06;;;;;;;5.80;2.63;;;;;;;;;;5021258;28;20044;-75
2023/05/28 13:34:31;;;;;;;3.92;2.08;;;;;;;;;;5023843;28;20377;-75
2023/05/28 13:36:56;;;;;;;4.20;2.20;;;;;;;;;;5003798;28;20030;-75
2023/05/28 13:39:22;;;;;;;3.80;2.20;;;;;;;;;;5023811;28;20315;-75
2023/05/28 13:41:51;;;;;;;3.57;2.07;;;;;;;;;;5005146;28;20029;-75
2023/05/28 13:44:16;;;;;;;4.32;2.53;;;;;;;;;;5003453;28;20051;-76
2023/05/28 13:46:42;;;;;;;3.22;2.30;;;;;;;;;;5019907;28;20037;-76
2023/05/28 13:49:07;;;;;;;4.95;2.30;;;;;;;;;;5021754;28;20026;-75
2023/05/28 13:51:32;;;;;;;3.43;1.77;;;;;;;;;;5024342;28;20136;-76
2023/05/28 13:53:57;;;;;;;3.80;2.33;;;;;;;;;;5023729;28;20263;-75
2023/05/28 13:56:23;;;;;;;4.20;2.30;;;;;;;;;;5004510;28;20091;-76
2023/05/28 13:58:48;;;;;;;5.57;2.30;;;;;;;;;;5023428;28;20026;-75
2023/05/28 14:01:13;;;;;;;3.67;2.20;;;;;;;;;;5023533;28;20061;-75
2023/05/28 14:03:39;;;;;;;5.47;2.47;;;;;;;;;;5005531;28;20116;-75
2023/05/28 14:06:04;;;;;;;5.05;2.35;;;;;;;;;;5023702;28;20395;-75
2023/05/28 14:08:30;;;;;;;4.32;2.72;;;;;;;;;;5020861;28;20473;-76
2023/05/28 14:10:55;;;;;;;3.83;2.40;;;;;;;;;;5022096;28;20043;-75
2023/05/28 14:13:20;;;;;;;4.20;2.43;;;;;;;;;;5009335;28;20035;-75
2023/05/28 14:15:45;;;;;;;3.97;2.33;;;;;;;;;;5003688;28;20026;-74
2023/05/28 14:18:11;;;;;;;4.10;2.55;;;;;;;;;;5023528;28;20481;-76
2023/05/28 14:20:36;;;;;;;7.40;2.72;;;;;;;;;;5004677;28;20476;-75
2023/05/28 14:23:02;;;;;;;3.67;2.33;;;;;;;;;;5005531;28;20408;-75
2023/05/28 14:25:27;;;;;;;5.25;2.65;;;;;;;;;;5023338;28;20264;-76
2023/05/28 14:27:52;;;;;;;3.72;2.55;;;;;;;;;;5026591;28;20730;-75
2023/05/28 14:30:18;;;;;;;4.13;2.80;;;;;;;;;;5022971;28;20488;-75
2023/05/28 14:32:43;;;;;;;3.90;2.57;;;;;;;;;;5019477;28;20044;-76
2023/05/28 14:35:08;;;;;;;4.53;2.20;;;;;;;;;;5022905;28;20491;-75
2023/05/28 14:37:33;;;;;;;4.20;2.13;;;;;;;;;;5005045;28;20117;-76
2023/05/28 14:39:59;;;;;;;4.37;2.87;;;;;;;;;;5019579;28;20073;-76